sensor_id;sensor_type;location;lat;lon;timestamp;pressure;altitude;pressure_sealevel;temperature;humidity
64683;BME280;51107;47.652;19.016;2023-06-14T00:00:00;99666.63;;;12.18;90.22
64683;BME280;51107;47.652;19.016;2023-06-14T00:02:31;99671.16;;;12.07;90.22
64683;BME280;51107;47.652;19.016;2023-06-14T00:05:00;99670.53;;;12.05;90.49
64683;BME280;51107;47.652;19.016;2023-06-14T00:07:36;99667.25;;;11.95;91.56
64683;BME280;51107;47.652;19.016;2023-06-14T00:10:07;99668.34;;;11.93;91.59
64683;BME280;51107;47.652;19.016;2023-06-14T00:12:35;99674.41;;;11.93;91.67
64683;BME280;51107;47.652;19.016;2023-06-14T00:15:04;99667.88;;;11.89;92.02
64683;BME280;51107;47.652;19.016;2023-06-14T00:17:34;99673.25;;;11.87;92.13
64683;BME280;51107;47.652;19.016;2023-06-14T00:20:06;99669.34;;;11.83;92.45
64683;BME280;51107;47.652;19.016;2023-06-14T00:22:35;99673.91;;;11.89;92.11
64683;BME280;51107;47.652;19.016;2023-06-14T00:25:05;99674.03;;;11.71;93.32
64683;BME280;51107;47.652;19.016;2023-06-14T00:27:52;99677.62;;;11.70;94.37
64683;BME280;51107;47.652;19.016;2023-06-14T00:30:20;99678.63;;;11.78;94.07
64683;BME280;51107;47.652;19.016;2023-06-14T00:32:49;99674.06;;;11.80;94.14
64683;BME280;51107;47.652;19.016;2023-06-14T00:35:18;99676.66;;;11.80;94.02
64683;BME280;51107;47.652;19.016;2023-06-14T00:37:47;99680.91;;;11.72;94.83
64683;BME280;51107;47.652;19.016;2023-06-14T00:40:15;99679.09;;;11.73;96.01
64683;BME280;51107;47.652;19.016;2023-06-14T00:42:45;99681.87;;;11.71;95.02
64683;BME280;51107;47.652;19.016;2023-06-14T00:45:14;99676.47;;;11.65;94.97
64683;BME280;51107;47.652;19.016;2023-06-14T00:47:42;99679.56;;;11.60;94.68
64683;BME280;51107;47.652;19.016;2023-06-14T00:50:11;99682.97;;;11.52;95.07
64683;BME280;51107;47.652;19.016;2023-06-14T00:52:41;99687.41;;;11.60;95.15
64683;BME280;51107;47.652;19.016;2023-06-14T00:55:09;99684.78;;;11.60;96.01
64683;BME280;51107;47.652;19.016;2023-06-14T00:57:38;99687.53;;;11.50;95.42
64683;BME280;51107;47.652;19.016;2023-06-14T01:00:08;99688.37;;;11.59;96.42
64683;BME280;51107;47.652;19.016;2023-06-14T01:02:38;99691.00;;;11.67;95.42
64683;BME280;51107;47.652;19.016;2023-06-14T01:05:09;99691.31;;;11.64;96.79
64683;BME280;51107;47.652;19.016;2023-06-14T01:13:34;99677.22;;;12.00;94.23
64683;BME280;51107;47.652;19.016;2023-06-14T01:16:05;99677.88;;;12.02;93.68
64683;BME280;51107;47.652;19.016;2023-06-14T01:18:34;99684.56;;;11.96;93.14
64683;BME280;51107;47.652;19.016;2023-06-14T01:21:02;99680.59;;;11.84;95.58
64683;BME280;51107;47.652;19.016;2023-06-14T01:23:34;99678.19;;;11.99;94.51
64683;BME280;51107;47.652;19.016;2023-06-14T01:26:03;99674.88;;;11.88;94.54
64683;BME280;51107;47.652;19.016;2023-06-14T01:28:31;99671.13;;;11.91;95.12
64683;BME280;51107;47.652;19.016;2023-06-14T01:31:02;99664.94;;;11.92;95.04
64683;BME280;51107;47.652;19.016;2023-06-14T01:33:34;99670.50;;;11.89;94.40
64683;BME280;51107;47.652;19.016;2023-06-14T01:36:05;99673.41;;;11.69;95.07
64683;BME280;51107;47.652;19.016;2023-06-14T01:38:36;99671.25;;;11.65;94.60
64683;BME280;51107;47.652;19.016;2023-06-14T01:41:05;99673.06;;;11.64;94.75
64683;BME280;51107;47.652;19.016;2023-06-14T01:43:34;99676.09;;;11.51;94.68
64683;BME280;51107;47.652;19.016;2023-06-14T01:46:04;99670.84;;;11.35;95.89
64683;BME280;51107;47.652;19.016;2023-06-14T01:48:34;99673.41;;;11.27;96.64
64683;BME280;51107;47.652;19.016;2023-06-14T01:51:03;99665.59;;;11.27;97.77
64683;BME280;51107;47.652;19.016;2023-06-14T01:53:32;99682.09;;;11.35;97.47
64683;BME280;51107;47.652;19.016;2023-06-14T01:56:01;99684.84;;;11.26;98.60
64683;BME280;51107;47.652;19.016;2023-06-14T01:58:31;99684.72;;;11.35;97.87
64683;BME280;51107;47.652;19.016;2023-06-14T02:01:00;99686.16;;;11.30;98.75
64683;BME280;51107;47.652;19.016;2023-06-14T02:03:29;99683.97;;;11.17;100.00
64683;BME280;51107;47.652;19.016;2023-06-14T02:05:58;99681.87;;;11.20;100.00
64683;BME280;51107;47.652;19.016;2023-06-14T02:08:26;99681.78;;;11.38;99.79
64683;BME280;51107;47.652;19.016;2023-06-14T02:10:55;99679.00;;;11.40;99.93
64683;BME280;51107;47.652;19.016;2023-06-14T02:13:23;99683.59;;;11.46;98.96
64683;BME280;51107;47.652;19.016;2023-06-14T02:15:51;99677.38;;;11.39;98.75
64683;BME280;51107;47.652;19.016;2023-06-14T02:18:23;99683.22;;;11.33;98.05
64683;BME280;51107;47.652;19.016;2023-06-14T02:20:51;99677.03;;;11.26;99.20
64683;BME280;51107;47.652;19.016;2023-06-14T02:23:20;99687.75;;;11.22;99.86
64683;BME280;51107;47.652;19.016;2023-06-14T02:25:48;99681.59;;;11.32;99.30
64683;BME280;51107;47.652;19.016;2023-06-14T02:28:17;99688.13;;;11.36;98.83
64683;BME280;51107;47.652;19.016;2023-06-14T02:30:45;99686.00;;;11.31;98.85
64683;BME280;51107;47.652;19.016;2023-06-14T02:33:13;99691.94;;;11.15;99.82
64683;BME280;51107;47.652;19.016;2023-06-14T02:35:42;99689.97;;;11.09;100.00
64683;BME280;51107;47.652;19.016;2023-06-14T02:38:11;99695.56;;;11.14;100.00
64683;BME280;51107;47.652;19.016;2023-06-14T02:40:39;99685.94;;;11.15;100.00
64683;BME280;51107;47.652;19.016;2023-06-14T02:43:10;99693.41;;;11.10;100.00
64683;BME280;51107;47.652;19.016;2023-06-14T02:45:39;99692.03;;;10.97;100.00
64683;BME280;51107;47.652;19.016;2023-06-14T02:48:08;99687.03;;;11.04;100.00
64683;BME280;51107;47.652;19.016;2023-06-14T02:50:37;99686.41;;;11.10;100.00
64683;BME280;51107;47.652;19.016;2023-06-14T02:53:05;99681.81;;;11.04;100.00
64683;BME280;51107;47.652;19.016;2023-06-14T02:55:34;99685.69;;;11.00;100.00
64683;BME280;51107;47.652;19.016;2023-06-14T02:58:08;99680.56;;;10.82;100.00
64683;BME280;51107;47.652;19.016;2023-06-14T03:00:38;99693.31;;;10.93;100.00
64683;BME280;51107;47.652;19.016;2023-06-14T03:03:07;99685.38;;;11.03;100.00
64683;BME280;51107;47.652;19.016;2023-06-14T03:05:45;99685.25;;;11.13;100.00
64683;BME280;51107;47.652;19.016;2023-06-14T03:08:17;99683.66;;;11.12;100.00
64683;BME280;51107;47.652;19.016;2023-06-14T03:10:48;99673.87;;;11.14;100.00
64683;BME280;51107;47.652;19.016;2023-06-14T03:13:16;99685.25;;;11.13;100.00
64683;BME280;51107;47.652;19.016;2023-06-14T03:15:45;99671.75;;;11.09;100.00
64683;BME280;51107;47.652;19.016;2023-06-14T03:18:14;99676.34;;;10.89;100.00
64683;BME280;51107;47.652;19.016;2023-06-14T03:20:43;99680.63;;;10.98;100.00
64683;BME280;51107;47.652;19.016;2023-06-14T03:23:13;99681.16;;;11.02;100.00
64683;BME280;51107;47.652;19.016;2023-06-14T03:25:42;99679.84;;;10.98;100.00
64683;BME280;51107;47.652;19.016;2023-06-14T03:28:12;99682.34;;;11.16;100.00
64683;BME280;51107;47.652;19.016;2023-06-14T03:30:40;99687.06;;;11.12;100.00
64683;BME280;51107;47.652;19.016;2023-06-14T03:33:09;99690.50;;;11.21;100.00
64683;BME280;51107;47.652;19.016;2023-06-14T03:35:38;99684.72;;;11.01;100.00
64683;BME280;51107;47.652;19.016;2023-06-14T03:38:06;99686.38;;;11.02;100.00
64683;BME280;51107;47.652;19.016;2023-06-14T03:40:34;99684.47;;;11.20;100.00
64683;BME280;51107;47.652;19.016;2023-06-14T03:43:03;99683.53;;;11.21;100.00
64683;BME280;51107;47.652;19.016;2023-06-14T03:45:31;99685.28;;;11.21;100.00
64683;BME280;51107;47.652;19.016;2023-06-14T03:48:00;99683.34;;;11.23;100.00
64683;BME280;51107;47.652;19.016;2023-06-14T03:50:30;99681.66;;;11.05;100.00
64683;BME280;51107;47.652;19.016;2023-06-14T03:52:58;99690.78;;;11.10;100.00
64683;BME280;51107;47.652;19.016;2023-06-14T03:55:26;99691.66;;;11.27;100.00
64683;BME280;51107;47.652;19.016;2023-06-14T03:57:58;99687.31;;;11.35;100.00
64683;BME280;51107;47.652;19.016;2023-06-14T04:00:27;99689.75;;;11.37;100.00
64683;BME280;51107;47.652;19.016;2023-06-14T04:02:56;99693.63;;;11.25;100.00
64683;BME280;51107;47.652;19.016;2023-06-14T04:05:24;99696.91;;;11.35;100.00
64683;BME280;51107;47.652;19.016;2023-06-14T04:07:55;99691.44;;;11.46;100.00
64683;BME280;51107;47.652;19.016;2023-06-14T04:10:25;99691.88;;;11.42;100.00
64683;BME280;51107;47.652;19.016;2023-06-14T04:12:54;99700.22;;;11.45;100.00
64683;BME280;51107;47.652;19.016;2023-06-14T04:15:22;99699.44;;;11.53;100.00
64683;BME280;51107;47.652;19.016;2023-06-14T04:17:51;99707.12;;;11.63;100.00
64683;BME280;51107;47.652;19.016;2023-06-14T04:20:20;99707.12;;;11.63;100.00
64683;BME280;51107;47.652;19.016;2023-06-14T04:22:50;99707.78;;;11.65;100.00
64683;BME280;51107;47.652;19.016;2023-06-14T04:25:18;99710.59;;;11.80;100.00
64683;BME280;51107;47.652;19.016;2023-06-14T04:27:51;99709.66;;;11.89;100.00
64683;BME280;51107;47.652;19.016;2023-06-14T04:30:21;99701.31;;;11.94;100.00
64683;BME280;51107;47.652;19.016;2023-06-14T04:32:55;99703.00;;;12.03;100.00
64683;BME280;51107;47.652;19.016;2023-06-14T04:35:24;99707.25;;;12.20;100.00
64683;BME280;51107;47.652;19.016;2023-06-14T04:37:53;99706.09;;;12.31;100.00
64683;BME280;51107;47.652;19.016;2023-06-14T04:40:22;99709.88;;;12.45;100.00
64683;BME280;51107;47.652;19.016;2023-06-14T04:42:50;99715.91;;;12.62;100.00
64683;BME280;51107;47.652;19.016;2023-06-14T04:45:19;99710.50;;;12.72;100.00
64683;BME280;51107;47.652;19.016;2023-06-14T04:47:47;99717.97;;;12.83;100.00
64683;BME280;51107;47.652;19.016;2023-06-14T04:50:16;99725.16;;;12.98;100.00
64683;BME280;51107;47.652;19.016;2023-06-14T04:52:45;99718.75;;;13.08;100.00
64683;BME280;51107;47.652;19.016;2023-06-14T04:55:14;99719.34;;;13.19;100.00
64683;BME280;51107;47.652;19.016;2023-06-14T04:57:44;99727.81;;;13.29;100.00
64683;BME280;51107;47.652;19.016;2023-06-14T05:00:14;99728.13;;;13.34;100.00
64683;BME280;51107;47.652;19.016;2023-06-14T05:02:43;99730.91;;;13.41;98.34
64683;BME280;51107;47.652;19.016;2023-06-14T05:05:12;99721.38;;;13.48;99.90
64683;BME280;51107;47.652;19.016;2023-06-14T05:07:41;99731.66;;;13.58;97.62
64683;BME280;51107;47.652;19.016;2023-06-14T05:10:09;99735.06;;;13.67;96.19
64683;BME280;51107;47.652;19.016;2023-06-14T05:12:38;99724.06;;;13.71;98.33
64683;BME280;51107;47.652;19.016;2023-06-14T05:15:08;99730.09;;;13.80;98.13
64683;BME280;51107;47.652;19.016;2023-06-14T05:17:39;99730.34;;;13.85;96.17
64683;BME280;51107;47.652;19.016;2023-06-14T05:20:08;99726.72;;;13.95;97.18
64683;BME280;51107;47.652;19.016;2023-06-14T05:22:38;99731.09;;;14.02;96.97
64683;BME280;51107;47.652;19.016;2023-06-14T05:25:06;99723.19;;;14.10;98.71
64683;BME280;51107;47.652;19.016;2023-06-14T05:27:35;99721.78;;;14.23;94.68
64683;BME280;51107;47.652;19.016;2023-06-14T05:30:06;99720.78;;;14.24;92.96
64683;BME280;51107;47.652;19.016;2023-06-14T05:32:35;99726.47;;;14.27;92.46
64683;BME280;51107;47.652;19.016;2023-06-14T05:35:04;99730.03;;;14.35;94.90
64683;BME280;51107;47.652;19.016;2023-06-14T05:37:34;99729.50;;;14.39;93.70
64683;BME280;51107;47.652;19.016;2023-06-14T05:40:03;99726.97;;;14.46;93.97
64683;BME280;51107;47.652;19.016;2023-06-14T05:42:33;99732.16;;;14.54;96.21
64683;BME280;51107;47.652;19.016;2023-06-14T05:45:01;99728.66;;;14.62;95.16
64683;BME280;51107;47.652;19.016;2023-06-14T05:47:30;99735.66;;;14.70;93.24
64683;BME280;51107;47.652;19.016;2023-06-14T05:49:58;99726.44;;;14.74;92.34
64683;BME280;51107;47.652;19.016;2023-06-14T05:52:27;99736.50;;;14.85;94.27
64683;BME280;51107;47.652;19.016;2023-06-14T05:54:56;99734.50;;;14.87;91.46
64683;BME280;51107;47.652;19.016;2023-06-14T05:57:24;99733.31;;;14.90;93.97
64683;BME280;51107;47.652;19.016;2023-06-14T05:59:53;99726.34;;;14.97;93.71
64683;BME280;51107;47.652;19.016;2023-06-14T06:02:22;99729.63;;;14.99;90.74
64683;BME280;51107;47.652;19.016;2023-06-14T06:04:50;99726.13;;;15.07;91.34
64683;BME280;51107;47.652;19.016;2023-06-14T06:07:18;99728.28;;;15.18;93.56
64683;BME280;51107;47.652;19.016;2023-06-14T06:09:47;99736.88;;;15.27;90.93
64683;BME280;51107;47.652;19.016;2023-06-14T06:12:16;99732.41;;;15.42;92.62
64683;BME280;51107;47.652;19.016;2023-06-14T06:14:44;99733.84;;;15.60;94.61
64683;BME280;51107;47.652;19.016;2023-06-14T06:17:12;99738.78;;;15.85;91.51
64683;BME280;51107;47.652;19.016;2023-06-14T06:19:41;99732.97;;;15.89;88.20
64683;BME280;51107;47.652;19.016;2023-06-14T06:22:09;99730.00;;;15.77;84.35
64683;BME280;51107;47.652;19.016;2023-06-14T06:24:37;99728.56;;;15.75;87.76
64683;BME280;51107;47.652;19.016;2023-06-14T06:27:06;99730.09;;;15.84;89.02
64683;BME280;51107;47.652;19.016;2023-06-14T06:29:38;99732.91;;;15.83;89.16
64683;BME280;51107;47.652;19.016;2023-06-14T06:32:07;99743.78;;;15.79;86.21
64683;BME280;51107;47.652;19.016;2023-06-14T06:34:35;99738.34;;;15.81;86.84
64683;BME280;51107;47.652;19.016;2023-06-14T06:37:03;99741.91;;;15.95;89.93
64683;BME280;51107;47.652;19.016;2023-06-14T06:39:32;99739.28;;;15.95;85.17
64683;BME280;51107;47.652;19.016;2023-06-14T06:42:01;99731.34;;;16.10;90.22
64683;BME280;51107;47.652;19.016;2023-06-14T06:44:32;99747.69;;;16.27;89.21
64683;BME280;51107;47.652;19.016;2023-06-14T06:47:01;99727.41;;;16.42;89.65
64683;BME280;51107;47.652;19.016;2023-06-14T06:49:30;99732.28;;;16.45;85.82
64683;BME280;51107;47.652;19.016;2023-06-14T06:52:05;99740.94;;;16.39;88.49
64683;BME280;51107;47.652;19.016;2023-06-14T06:54:34;99737.47;;;16.39;87.18
64683;BME280;51107;47.652;19.016;2023-06-14T06:57:03;99730.28;;;16.47;85.66
64683;BME280;51107;47.652;19.016;2023-06-14T06:59:32;99733.87;;;16.68;91.08
64683;BME280;51107;47.652;19.016;2023-06-14T07:02:00;99727.78;;;16.68;86.02
64683;BME280;51107;47.652;19.016;2023-06-14T07:04:29;99726.16;;;16.67;86.14
64683;BME280;51107;47.652;19.016;2023-06-14T07:06:57;99728.28;;;16.78;86.48
64683;BME280;51107;47.652;19.016;2023-06-14T07:09:25;99744.66;;;17.02;85.81
64683;BME280;51107;47.652;19.016;2023-06-14T07:11:54;99743.06;;;17.07;82.04
64683;BME280;51107;47.652;19.016;2023-06-14T07:14:22;99744.81;;;17.35;82.23
64683;BME280;51107;47.652;19.016;2023-06-14T07:16:51;99737.38;;;17.45;79.37
64683;BME280;51107;47.652;19.016;2023-06-14T07:19:20;99746.16;;;17.66;79.92
64683;BME280;51107;47.652;19.016;2023-06-14T07:21:48;99740.66;;;17.61;76.88
64683;BME280;51107;47.652;19.016;2023-06-14T07:24:18;99747.22;;;17.85;77.52
64683;BME280;51107;47.652;19.016;2023-06-14T07:26:49;99737.56;;;18.06;76.55
64683;BME280;51107;47.652;19.016;2023-06-14T07:29:17;99743.06;;;18.78;80.09
64683;BME280;51107;47.652;19.016;2023-06-14T07:31:46;99745.47;;;19.06;75.70
64683;BME280;51107;47.652;19.016;2023-06-14T07:34:14;99743.25;;;19.03;70.99
64683;BME280;51107;47.652;19.016;2023-06-14T07:36:42;99741.41;;;19.10;72.14
64683;BME280;51107;47.652;19.016;2023-06-14T07:39:12;99742.84;;;19.58;73.32
64683;BME280;51107;47.652;19.016;2023-06-14T07:41:41;99741.72;;;19.86;68.90
64683;BME280;51107;47.652;19.016;2023-06-14T07:44:09;99735.00;;;20.22;71.68
64683;BME280;51107;47.652;19.016;2023-06-14T07:46:38;99741.03;;;20.54;67.13
64683;BME280;51107;47.652;19.016;2023-06-14T07:49:07;99740.66;;;20.26;64.38
64683;BME280;51107;47.652;19.016;2023-06-14T07:51:35;99748.16;;;20.29;67.29
64683;BME280;51107;47.652;19.016;2023-06-14T07:54:03;99745.59;;;20.47;69.61
64683;BME280;51107;47.652;19.016;2023-06-14T07:56:32;99744.59;;;21.11;71.13
64683;BME280;51107;47.652;19.016;2023-06-14T07:59:01;99737.38;;;21.55;65.81
64683;BME280;51107;47.652;19.016;2023-06-14T08:01:29;99739.00;;;21.37;65.76
64683;BME280;51107;47.652;19.016;2023-06-14T08:03:57;99740.03;;;21.18;62.94
64683;BME280;51107;47.652;19.016;2023-06-14T08:06:25;99743.72;;;21.35;63.04
64683;BME280;51107;47.652;19.016;2023-06-14T08:08:54;99743.56;;;21.49;64.91
64683;BME280;51107;47.652;19.016;2023-06-14T08:11:23;99739.44;;;21.34;60.67
64683;BME280;51107;47.652;19.016;2023-06-14T08:13:52;99747.00;;;21.31;65.28
64683;BME280;51107;47.652;19.016;2023-06-14T08:16:20;99742.75;;;20.93;60.74
64683;BME280;51107;47.652;19.016;2023-06-14T08:18:49;99737.44;;;20.49;64.21
64683;BME280;51107;47.652;19.016;2023-06-14T08:21:18;99737.44;;;20.49;66.20
64683;BME280;51107;47.652;19.016;2023-06-14T08:23:46;99741.66;;;20.57;65.36
64683;BME280;51107;47.652;19.016;2023-06-14T08:26:15;99736.75;;;20.53;68.06
64683;BME280;51107;47.652;19.016;2023-06-14T08:28:43;99743.25;;;20.58;66.00
64683;BME280;51107;47.652;19.016;2023-06-14T08:31:13;99744.22;;;20.63;64.62
64683;BME280;51107;47.652;19.016;2023-06-14T08:33:41;99744.75;;;20.47;63.10
64683;BME280;51107;47.652;19.016;2023-06-14T08:36:11;99739.38;;;20.35;66.24
64683;BME280;51107;47.652;19.016;2023-06-14T08:38:40;99747.28;;;20.10;65.84
64683;BME280;51107;47.652;19.016;2023-06-14T08:41:11;99748.06;;;20.17;64.74
64683;BME280;51107;47.652;19.016;2023-06-14T08:43:41;99751.19;;;20.32;68.08
64683;BME280;51107;47.652;19.016;2023-06-14T08:46:10;99753.44;;;20.29;67.26
64683;BME280;51107;47.652;19.016;2023-06-14T08:48:40;99751.81;;;20.34;67.33
64683;BME280;51107;47.652;19.016;2023-06-14T08:51:09;99762.88;;;20.50;64.70
64683;BME280;51107;47.652;19.016;2023-06-14T08:53:40;99765.81;;;20.60;66.77
64683;BME280;51107;47.652;19.016;2023-06-14T08:56:10;99767.09;;;20.83;64.38
64683;BME280;51107;47.652;19.016;2023-06-14T08:58:44;99768.91;;;20.57;64.46
64683;BME280;51107;47.652;19.016;2023-06-14T09:01:16;99768.84;;;20.64;67.43
64683;BME280;51107;47.652;19.016;2023-06-14T09:03:46;99765.47;;;20.57;65.68
64683;BME280;51107;47.652;19.016;2023-06-14T09:06:17;99775.38;;;20.68;65.53
64683;BME280;51107;47.652;19.016;2023-06-14T09:08:47;99775.72;;;20.97;65.39
64683;BME280;51107;47.652;19.016;2023-06-14T09:11:18;99777.97;;;20.93;65.90
64683;BME280;51107;47.652;19.016;2023-06-14T09:13:49;99773.53;;;20.68;63.57
64683;BME280;51107;47.652;19.016;2023-06-14T09:16:17;99772.28;;;20.71;66.76
64683;BME280;51107;47.652;19.016;2023-06-14T09:18:46;99778.69;;;20.82;66.61
64683;BME280;51107;47.652;19.016;2023-06-14T09:21:19;99779.50;;;20.82;62.79
64683;BME280;51107;47.652;19.016;2023-06-14T09:23:48;99780.56;;;20.81;62.01
64683;BME280;51107;47.652;19.016;2023-06-14T09:26:18;99781.69;;;20.60;62.82
64683;BME280;51107;47.652;19.016;2023-06-14T09:28:51;99781.91;;;20.59;63.35
64683;BME280;51107;47.652;19.016;2023-06-14T09:31:20;99776.22;;;20.55;62.19
64683;BME280;51107;47.652;19.016;2023-06-14T09:33:49;99779.66;;;20.62;62.84
64683;BME280;51107;47.652;19.016;2023-06-14T09:36:22;99779.16;;;20.97;65.89
64683;BME280;51107;47.652;19.016;2023-06-14T09:38:52;99769.50;;;22.08;65.13
64683;BME280;51107;47.652;19.016;2023-06-14T09:41:35;99764.91;;;22.15;59.69
64683;BME280;51107;47.652;19.016;2023-06-14T09:44:05;99775.62;;;22.74;58.29
64683;BME280;51107;47.652;19.016;2023-06-14T09:46:38;99771.34;;;22.61;56.64
64683;BME280;51107;47.652;19.016;2023-06-14T09:49:08;99764.75;;;21.98;57.77
64683;BME280;51107;47.652;19.016;2023-06-14T09:51:43;99763.59;;;22.48;62.18
64683;BME280;51107;47.652;19.016;2023-06-14T09:54:16;99760.38;;;23.05;58.43
64683;BME280;51107;47.652;19.016;2023-06-14T09:56:48;99763.53;;;22.66;49.95
64683;BME280;51107;47.652;19.016;2023-06-14T09:59:26;99763.41;;;22.61;52.17
64683;BME280;51107;47.652;19.016;2023-06-14T10:02:06;99758.75;;;22.45;53.36
64683;BME280;51107;47.652;19.016;2023-06-14T10:04:37;99752.66;;;22.02;50.78
64683;BME280;51107;47.652;19.016;2023-06-14T10:07:07;99745.31;;;22.16;52.05
64683;BME280;51107;47.652;19.016;2023-06-14T10:09:36;99739.81;;;21.87;50.28
64683;BME280;51107;47.652;19.016;2023-06-14T10:12:05;99746.06;;;21.62;49.79
64683;BME280;51107;47.652;19.016;2023-06-14T10:14:34;99755.84;;;21.62;49.85
64683;BME280;51107;47.652;19.016;2023-06-14T10:17:10;99751.66;;;21.54;53.42
64683;BME280;51107;47.652;19.016;2023-06-14T10:19:46;99747.47;;;21.46;51.28
64683;BME280;51107;47.652;19.016;2023-06-14T10:22:39;99751.06;;;21.33;52.85
64683;BME280;51107;47.652;19.016;2023-06-14T10:25:26;99743.84;;;21.22;53.07
64683;BME280;51107;47.652;19.016;2023-06-14T10:28:30;99752.03;;;21.02;54.03
64683;BME280;51107;47.652;19.016;2023-06-14T10:31:17;99755.41;;;21.09;55.03
64683;BME280;51107;47.652;19.016;2023-06-14T10:33:50;99741.72;;;21.12;53.62
64683;BME280;51107;47.652;19.016;2023-06-14T10:36:29;99754.75;;;21.14;53.32
64683;BME280;51107;47.652;19.016;2023-06-14T10:39:18;99755.50;;;21.02;55.96
64683;BME280;51107;47.652;19.016;2023-06-14T10:41:55;99758.66;;;21.11;55.45
64683;BME280;51107;47.652;19.016;2023-06-14T10:46:52;99760.84;;;20.96;57.88
64683;BME280;51107;47.652;19.016;2023-06-14T10:52:16;99756.63;;;20.88;58.40
64683;BME280;51107;47.652;19.016;2023-06-14T10:57:25;99762.13;;;20.68;58.49
64683;BME280;51107;47.652;19.016;2023-06-14T10:59:53;99759.47;;;20.43;59.54
64683;BME280;51107;47.652;19.016;2023-06-14T11:02:46;99758.53;;;20.56;58.95
64683;BME280;51107;47.652;19.016;2023-06-14T11:05:24;99758.97;;;20.78;59.94
64683;BME280;51107;47.652;19.016;2023-06-14T11:10:38;99758.13;;;21.21;62.24
64683;BME280;51107;47.652;19.016;2023-06-14T11:13:07;99753.41;;;21.42;59.56
64683;BME280;51107;47.652;19.016;2023-06-14T11:15:37;99748.87;;;21.30;58.02
64683;BME280;51107;47.652;19.016;2023-06-14T11:18:07;99759.06;;;21.64;56.56
64683;BME280;51107;47.652;19.016;2023-06-14T11:20:39;99755.91;;;21.74;54.31
64683;BME280;51107;47.652;19.016;2023-06-14T11:23:08;99728.66;;;21.66;56.67
64683;BME280;51107;47.652;19.016;2023-06-14T11:25:36;99747.09;;;21.43;49.53
64683;BME280;51107;47.652;19.016;2023-06-14T11:28:05;99747.53;;;21.21;51.26
64683;BME280;51107;47.652;19.016;2023-06-14T11:30:33;99747.19;;;21.17;52.65
64683;BME280;51107;47.652;19.016;2023-06-14T11:33:01;99749.63;;;21.56;54.09
64683;BME280;51107;47.652;19.016;2023-06-14T11:35:30;99740.13;;;21.79;52.65
64683;BME280;51107;47.652;19.016;2023-06-14T11:37:58;99737.75;;;21.89;53.27
64683;BME280;51107;47.652;19.016;2023-06-14T11:40:27;99742.91;;;21.84;50.34
64683;BME280;51107;47.652;19.016;2023-06-14T11:43:02;99738.19;;;21.86;51.40
64683;BME280;51107;47.652;19.016;2023-06-14T11:45:31;99736.53;;;21.73;49.82
64683;BME280;51107;47.652;19.016;2023-06-14T11:47:59;99740.44;;;21.70;52.11
64683;BME280;51107;47.652;19.016;2023-06-14T11:50:28;99732.72;;;21.69;44.88
64683;BME280;51107;47.652;19.016;2023-06-14T11:52:58;99739.47;;;21.95;51.67
64683;BME280;51107;47.652;19.016;2023-06-14T11:55:39;99732.81;;;22.04;47.95
64683;BME280;51107;47.652;19.016;2023-06-14T11:58:10;99729.06;;;22.12;44.44
64683;BME280;51107;47.652;19.016;2023-06-14T12:00:39;99722.69;;;22.01;44.13
64683;BME280;51107;47.652;19.016;2023-06-14T12:03:08;99733.75;;;22.10;45.59
64683;BME280;51107;47.652;19.016;2023-06-14T12:05:37;99733.56;;;22.23;46.00
64683;BME280;51107;47.652;19.016;2023-06-14T12:08:05;99735.38;;;22.23;40.07
64683;BME280;51107;47.652;19.016;2023-06-14T12:10:40;99736.56;;;22.27;42.77
64683;BME280;51107;47.652;19.016;2023-06-14T12:13:09;99723.84;;;22.05;41.46
64683;BME280;51107;47.652;19.016;2023-06-14T12:15:38;99733.41;;;22.06;39.50
64683;BME280;51107;47.652;19.016;2023-06-14T12:18:07;99729.06;;;21.82;41.38
64683;BME280;51107;47.652;19.016;2023-06-14T12:20:38;99728.50;;;21.80;40.74
64683;BME280;51107;47.652;19.016;2023-06-14T12:23:08;99727.81;;;21.84;43.58
64683;BME280;51107;47.652;19.016;2023-06-14T12:25:37;99725.06;;;21.91;41.57
64683;BME280;51107;47.652;19.016;2023-06-14T12:28:08;99723.72;;;22.00;43.66
64683;BME280;51107;47.652;19.016;2023-06-14T12:30:38;99724.59;;;21.94;42.54
64683;BME280;51107;47.652;19.016;2023-06-14T12:33:06;99723.84;;;22.05;45.40
64683;BME280;51107;47.652;19.016;2023-06-14T12:35:36;99719.00;;;22.14;44.87
64683;BME280;51107;47.652;19.016;2023-06-14T12:38:04;99720.72;;;22.09;46.34
64683;BME280;51107;47.652;19.016;2023-06-14T12:40:32;99724.72;;;21.99;41.89
64683;BME280;51107;47.652;19.016;2023-06-14T12:43:03;99733.91;;;22.27;45.37
64683;BME280;51107;47.652;19.016;2023-06-14T12:45:32;99728.28;;;22.35;48.28
64683;BME280;51107;47.652;19.016;2023-06-14T12:48:00;99727.09;;;22.31;44.69
64683;BME280;51107;47.652;19.016;2023-06-14T12:50:31;99731.25;;;22.27;47.86
64683;BME280;51107;47.652;19.016;2023-06-14T12:52:59;99731.25;;;22.27;45.59
64683;BME280;51107;47.652;19.016;2023-06-14T12:55:27;99729.94;;;22.48;43.08
64683;BME280;51107;47.652;19.016;2023-06-14T12:57:55;99721.59;;;22.45;42.93
64683;BME280;51107;47.652;19.016;2023-06-14T13:00:24;99729.81;;;22.43;42.77
64683;BME280;51107;47.652;19.016;2023-06-14T13:02:53;99727.09;;;22.31;40.14
64683;BME280;51107;47.652;19.016;2023-06-14T13:05:22;99728.38;;;22.29;42.06
64683;BME280;51107;47.652;19.016;2023-06-14T13:07:51;99723.41;;;22.32;43.35
64683;BME280;51107;47.652;19.016;2023-06-14T13:10:19;99726.06;;;22.20;42.86
64683;BME280;51107;47.652;19.016;2023-06-14T13:12:47;99727.56;;;22.28;41.45
64683;BME280;51107;47.652;19.016;2023-06-14T13:15:16;99725.50;;;22.30;42.23
64683;BME280;51107;47.652;19.016;2023-06-14T13:17:44;99721.38;;;22.34;44.30